createdAt,value
2019-03-22T00:00:24.464Z,29.50
2019-03-22T00:01:02.077Z,29.12
2019-03-22T00:01:35.444Z,28.83
2019-03-22T00:02:08.854Z,29.42
2019-03-22T00:02:41.880Z,29.87
2019-03-22T00:03:14.902Z,29.02
2019-03-22T00:03:47.898Z,29.05
2019-03-22T00:04:20.946Z,28.83
2019-03-22T00:04:53.977Z,28.15
2019-03-22T00:05:27.377Z,27.55
2019-03-22T00:06:00.427Z,28.98
2019-03-22T00:06:33.867Z,30.85
2019-03-22T00:07:07.227Z,31.02
2019-03-22T00:07:40.246Z,28.70
2019-03-22T00:08:13.411Z,30.70
2019-03-22T00:08:46.441Z,28.07
2019-03-22T00:09:19.438Z,29.90
2019-03-22T00:09:52.848Z,29.70
2019-03-22T00:10:25.863Z,31.25
2019-03-22T00:10:59.156Z,29.48
2019-03-22T00:11:32.176Z,30.40
2019-03-22T00:12:05.324Z,31.73
2019-03-22T00:12:38.712Z,30.50
2019-03-22T00:13:12.050Z,29.82
2019-03-22T00:13:45.071Z,28.05
2019-03-22T00:14:18.096Z,28.17
2019-03-22T00:14:51.119Z,29.42
2019-03-22T00:15:24.162Z,29.70
2019-03-22T00:15:57.184Z,29.50
2019-03-22T00:16:30.512Z,29.18
2019-03-22T00:17:03.540Z,28.75
2019-03-22T00:17:36.564Z,28.60
2019-03-22T00:18:09.576Z,28.12
2019-03-22T00:18:42.582Z,26.62
2019-03-22T00:19:16.060Z,27.60
2019-03-22T00:19:49.072Z,29.65
2019-03-22T00:20:22.082Z,29.63
2019-03-22T00:20:55.974Z,27.17
2019-03-22T00:21:28.983Z,28.07
2019-03-22T00:22:01.986Z,28.42
2019-03-22T00:22:34.999Z,27.67
2019-03-22T00:23:08.340Z,29.98
2019-03-22T00:23:41.361Z,27.02
2019-03-22T00:24:14.363Z,29.55
2019-03-22T00:24:47.374Z,27.65
2019-03-22T00:25:20.387Z,27.90
2019-03-22T00:25:53.830Z,29.67
2019-03-22T00:26:27.190Z,28.12
2019-03-22T00:27:00.592Z,27.80
2019-03-22T00:27:33.602Z,29.90
2019-03-22T00:28:06.622Z,27.30
2019-03-22T00:28:39.663Z,27.90
2019-03-22T00:29:12.983Z,29.50
2019-03-22T00:29:46.036Z,27.05
2019-03-22T00:30:19.071Z,28.95
2019-03-22T00:30:52.077Z,27.05
2019-03-22T00:31:25.147Z,29.20
2019-03-22T00:31:58.271Z,28.57
2019-03-22T00:32:31.324Z,27.90
2019-03-22T00:33:04.337Z,27.98
2019-03-22T00:33:37.357Z,27.90
2019-03-22T00:34:10.371Z,29.42
2019-03-22T00:34:43.462Z,29.00
2019-03-22T00:35:16.412Z,29.63
2019-03-22T00:35:49.420Z,27.52
2019-03-22T00:36:22.452Z,28.10
2019-03-22T00:36:55.470Z,28.50
2019-03-22T00:37:28.506Z,28.85
2019-03-22T00:38:01.909Z,27.90
2019-03-22T00:38:35.377Z,29.75
2019-03-22T00:39:08.400Z,27.65
2019-03-22T00:39:41.428Z,28.42
2019-03-22T00:40:14.444Z,27.15
2019-03-22T00:40:47.481Z,27.77
2019-03-22T00:41:20.496Z,29.40
2019-03-22T00:41:53.523Z,27.48
2019-03-22T00:42:27.035Z,26.68
2019-03-22T00:43:00.084Z,28.38
2019-03-22T00:43:33.771Z,26.85
2019-03-22T00:44:06.928Z,27.60
2019-03-22T00:44:39.942Z,28.80
2019-03-22T00:45:12.958Z,30.62
2019-03-22T00:45:45.979Z,27.13
2019-03-22T00:46:18.991Z,28.57
2019-03-22T00:46:51.997Z,28.23
2019-03-22T00:47:25.315Z,26.57
2019-03-22T00:47:58.680Z,26.90
2019-03-22T00:48:32.070Z,30.65
2019-03-22T00:49:05.062Z,28.67
2019-03-22T00:49:38.078Z,29.55
2019-03-22T00:50:11.627Z,28.62
2019-03-22T00:50:44.730Z,28.80
2019-03-22T00:51:18.046Z,30.12
2019-03-22T00:51:51.055Z,28.32
2019-03-22T00:52:24.920Z,28.02
2019-03-22T00:52:57.931Z,28.67
2019-03-22T00:53:30.950Z,30.02
2019-03-22T00:54:03.984Z,27.90
2019-03-22T00:54:37.332Z,28.02
2019-03-22T00:55:10.722Z,28.60
2019-03-22T00:55:43.750Z,29.87
2019-03-22T00:56:16.760Z,28.90
2019-03-22T00:56:50.061Z,28.10
2019-03-22T00:57:28.480Z,27.73
2019-03-22T00:57:57.920Z,28.02
2019-03-22T00:58:31.016Z,28.83
2019-03-22T00:59:04.398Z,26.80
2019-03-22T00:59:37.839Z,28.17
2019-03-22T01:00:12.185Z,27.30
2019-03-22T01:00:45.200Z,26.80
2019-03-22T01:01:18.224Z,27.87
2019-03-22T01:01:51.598Z,28.32
2019-03-22T01:02:24.680Z,27.25
2019-03-22T01:02:57.656Z,28.85
2019-03-22T01:03:30.684Z,27.85
2019-03-22T01:04:03.705Z,26.25
2019-03-22T01:04:37.016Z,28.35
2019-03-22T01:05:11.785Z,28.98
2019-03-22T01:05:45.076Z,28.50
2019-03-22T01:06:18.103Z,26.65
2019-03-22T01:06:51.114Z,27.82
2019-03-22T01:07:24.136Z,29.37
2019-03-22T01:07:57.143Z,27.42
2019-03-22T01:08:30.160Z,29.35
2019-03-22T01:09:04.344Z,27.40
2019-03-22T01:09:37.359Z,27.65
2019-03-22T01:10:10.847Z,28.52
2019-03-22T01:10:44.183Z,28.05
2019-03-22T01:11:17.196Z,27.10
2019-03-22T01:11:50.230Z,26.52
2019-03-22T01:12:23.230Z,27.65
2019-03-22T01:12:56.268Z,28.17
2019-03-22T01:13:29.292Z,29.25
2019-03-22T01:14:02.566Z,26.25
2019-03-22T01:14:35.683Z,26.52
2019-03-22T01:15:09.409Z,28.32
2019-03-22T01:15:42.422Z,28.35
2019-03-22T01:16:15.472Z,27.30
2019-03-22T01:16:48.488Z,27.40
2019-03-22T01:17:21.802Z,27.30
2019-03-22T01:17:54.814Z,29.10
2019-03-22T01:18:27.838Z,28.52
2019-03-22T01:19:01.223Z,26.60
2019-03-22T01:19:34.212Z,27.45
2019-03-22T01:20:07.268Z,27.48
2019-03-22T01:20:40.262Z,28.40
2019-03-22T01:21:13.698Z,29.12
2019-03-22T01:21:46.726Z,29.12
2019-03-22T01:22:20.720Z,28.00
2019-03-22T01:22:53.935Z,28.57
2019-03-22T01:23:26.952Z,26.48
2019-03-22T01:24:00.380Z,27.13
2019-03-22T01:24:33.762Z,27.70
2019-03-22T01:25:07.196Z,29.82
2019-03-22T01:25:40.210Z,27.77
2019-03-22T01:26:13.584Z,27.07
2019-03-22T01:26:46.966Z,26.35
2019-03-22T01:27:19.995Z,28.02
2019-03-22T01:27:53.046Z,27.87
2019-03-22T01:28:26.392Z,27.27
2019-03-22T01:28:59.779Z,28.07
2019-03-22T01:29:32.814Z,26.52
2019-03-22T01:30:07.351Z,25.82
2019-03-22T01:30:40.355Z,27.58
2019-03-22T01:31:13.739Z,26.00
2019-03-22T01:31:47.064Z,27.70
2019-03-22T01:32:20.080Z,27.60
2019-03-22T01:32:53.134Z,25.32
2019-03-22T01:33:26.517Z,26.68
2019-03-22T01:33:59.484Z,27.42
2019-03-22T01:34:32.517Z,27.37
2019-03-22T01:35:06.988Z,26.93
2019-03-22T01:35:40.430Z,26.80
2019-03-22T01:36:13.864Z,29.02
2019-03-22T01:36:46.880Z,27.35
2019-03-22T01:37:19.899Z,27.22
2019-03-22T01:37:52.903Z,27.17
2019-03-22T01:38:26.426Z,26.37
2019-03-22T01:38:59.503Z,27.90
2019-03-22T01:39:32.656Z,25.80
2019-03-22T01:40:07.043Z,25.52
2019-03-22T01:40:40.072Z,27.13
2019-03-22T01:41:13.091Z,27.15
2019-03-22T01:41:46.099Z,25.97
2019-03-22T01:42:19.415Z,27.13
2019-03-22T01:42:52.868Z,24.98
2019-03-22T01:43:25.892Z,27.35
2019-03-22T01:43:58.956Z,26.23
2019-03-22T01:44:31.975Z,27.87
2019-03-22T01:45:06.331Z,29.00
2019-03-22T01:45:39.351Z,26.87
2019-03-22T01:46:12.848Z,28.85
2019-03-22T01:46:45.857Z,27.52
2019-03-22T01:47:18.873Z,26.80
2019-03-22T01:47:51.878Z,27.65
2019-03-22T01:48:25.338Z,26.85
2019-03-22T01:48:58.343Z,28.00
2019-03-22T01:49:31.811Z,28.87
2019-03-22T01:50:06.544Z,28.07
2019-03-22T01:50:40.073Z,26.85
2019-03-22T01:51:13.107Z,29.77
2019-03-22T01:51:46.119Z,29.57
2019-03-22T01:52:19.643Z,27.60
2019-03-22T01:52:53.020Z,26.70
2019-03-22T01:53:26.032Z,29.18
2019-03-22T01:53:59.358Z,27.05
2019-03-22T01:54:32.395Z,29.07
2019-03-22T01:55:06.016Z,26.75
2019-03-22T01:55:39.043Z,26.23
2019-03-22T01:56:12.066Z,26.33
2019-03-22T01:56:45.438Z,28.30
2019-03-22T01:57:18.455Z,28.10
2019-03-22T01:57:53.686Z,27.98
2019-03-22T01:58:26.468Z,27.00
2019-03-22T01:58:59.482Z,28.30
2019-03-22T01:59:32.506Z,27.40
2019-03-22T02:00:06.738Z,27.87
2019-03-22T02:00:39.779Z,27.45
2019-03-22T02:01:13.207Z,28.65
2019-03-22T02:01:46.243Z,27.52
2019-03-22T02:02:19.555Z,28.45
2019-03-22T02:02:52.941Z,28.15
2019-03-22T02:03:25.938Z,26.80
2019-03-22T02:03:58.950Z,28.12
2019-03-22T02:04:32.833Z,27.02
2019-03-22T02:05:06.420Z,27.50
2019-03-22T02:05:39.427Z,26.02
2019-03-22T02:06:12.494Z,28.60
2019-03-22T02:06:45.494Z,28.47
2019-03-22T02:07:19.183Z,27.70
2019-03-22T02:07:52.633Z,27.10
2019-03-22T02:08:25.646Z,27.95
2019-03-22T02:08:59.047Z,26.37
2019-03-22T02:09:32.072Z,25.75
2019-03-22T02:10:06.397Z,27.95
2019-03-22T02:10:39.416Z,26.62
2019-03-22T02:11:12.820Z,25.97
2019-03-22T02:11:45.858Z,27.45
2019-03-22T02:12:19.049Z,25.40
2019-03-22T02:12:52.074Z,27.42
2019-03-22T02:13:25.468Z,28.17
2019-03-22T02:13:58.488Z,26.77
2019-03-22T02:14:31.490Z,26.75
2019-03-22T02:15:08.587Z,26.60
2019-03-22T02:15:41.970Z,27.40
2019-03-22T02:16:14.992Z,26.77
2019-03-22T02:16:48.013Z,26.25
2019-03-22T02:17:21.057Z,26.25
2019-03-22T02:17:54.088Z,27.65
2019-03-22T02:18:27.115Z,26.48
2019-03-22T02:19:00.514Z,28.27
2019-03-22T02:19:33.527Z,28.23
2019-03-22T02:20:07.648Z,25.27
2019-03-22T02:20:40.672Z,26.17
2019-03-22T02:21:14.062Z,26.00
2019-03-22T02:21:47.392Z,27.25
2019-03-22T02:22:20.465Z,25.82
2019-03-22T02:22:53.473Z,25.48
2019-03-22T02:23:26.887Z,26.75
2019-03-22T02:23:59.913Z,27.22
2019-03-22T02:24:32.940Z,27.27
2019-03-22T02:25:06.528Z,29.12
2019-03-22T02:25:39.530Z,25.60
2019-03-22T02:26:12.542Z,27.48
2019-03-22T02:26:45.549Z,26.73
2019-03-22T02:27:18.612Z,26.00
2019-03-22T02:28:03.462Z,26.73
2019-03-22T02:28:27.202Z,26.15
2019-03-22T02:29:00.558Z,24.50
2019-03-22T02:29:33.591Z,26.75
2019-03-22T02:30:07.372Z,25.70
2019-03-22T02:30:40.396Z,26.80
2019-03-22T02:31:13.401Z,26.65
2019-03-22T02:31:46.406Z,25.05
2019-03-22T02:32:19.554Z,25.00
2019-03-22T02:32:52.969Z,25.27
2019-03-22T02:33:25.982Z,25.00
2019-03-22T02:33:59.039Z,25.92
2019-03-22T02:34:32.113Z,24.18
2019-03-22T02:35:05.768Z,25.23
2019-03-22T02:35:39.043Z,28.77
2019-03-22T02:36:12.429Z,25.43
2019-03-22T02:36:45.512Z,24.23
2019-03-22T02:37:18.563Z,24.70
2019-03-22T02:37:51.603Z,25.17
2019-03-22T02:38:25.014Z,25.43
2019-03-22T02:38:58.019Z,24.77
2019-03-22T02:39:31.112Z,24.45
2019-03-22T02:40:05.880Z,25.60
2019-03-22T02:40:39.317Z,24.85
2019-03-22T02:41:12.324Z,25.62
2019-03-22T02:41:45.347Z,25.10
2019-03-22T02:42:18.695Z,25.17
2019-03-22T02:42:51.709Z,25.65
2019-03-22T02:43:24.733Z,27.48
2019-03-22T02:43:58.154Z,25.35
2019-03-22T02:44:31.547Z,24.20
2019-03-22T02:45:06.473Z,26.17
2019-03-22T02:45:39.482Z,27.15
2019-03-22T02:46:12.793Z,25.65
2019-03-22T02:46:46.193Z,24.55
2019-03-22T02:47:19.216Z,25.55
2019-03-22T02:47:52.267Z,25.88
2019-03-22T02:48:25.279Z,22.67
2019-03-22T02:48:58.304Z,24.23
2019-03-22T02:49:31.340Z,26.25
2019-03-22T02:50:17.256Z,25.92
2019-03-22T02:50:40.575Z,24.90
2019-03-22T02:51:13.977Z,24.30
2019-03-22T02:51:47.012Z,25.68
2019-03-22T02:52:20.033Z,24.60
2019-03-22T02:52:53.153Z,24.87
2019-03-22T02:53:26.162Z,23.57
2019-03-22T02:53:59.184Z,24.45
2019-03-22T02:54:32.183Z,25.12
2019-03-22T02:55:05.616Z,25.12
2019-03-22T02:55:38.640Z,22.40
2019-03-22T02:56:11.796Z,24.60
2019-03-22T02:56:44.996Z,23.60
2019-03-22T02:57:18.396Z,25.57
2019-03-22T02:57:51.435Z,24.10
2019-03-22T02:58:24.763Z,22.10
2019-03-22T02:58:59.369Z,22.58
2019-03-22T02:59:33.058Z,23.98
2019-03-22T03:00:07.163Z,24.30
2019-03-22T03:00:40.538Z,22.17
2019-03-22T03:01:13.562Z,24.40
2019-03-22T03:01:47.361Z,23.07
2019-03-22T03:02:20.372Z,23.57
2019-03-22T03:02:53.396Z,23.25
2019-03-22T03:03:26.850Z,21.87
2019-03-22T03:03:59.852Z,23.40
2019-03-22T03:04:32.950Z,24.02
2019-03-22T03:05:07.461Z,23.65
2019-03-22T03:05:40.772Z,25.02
2019-03-22T03:06:13.785Z,23.45
2019-03-22T03:06:46.793Z,23.18
2019-03-22T03:07:19.826Z,24.72
2019-03-22T03:07:54.154Z,23.15
2019-03-22T03:08:27.172Z,23.90
2019-03-22T03:09:00.162Z,25.70
2019-03-22T03:09:33.551Z,21.85
2019-03-22T03:10:07.789Z,23.60
2019-03-22T03:10:40.796Z,21.40
2019-03-22T03:11:13.820Z,24.92
2019-03-22T03:11:46.831Z,24.20
2019-03-22T03:12:19.859Z,22.82
2019-03-22T03:12:52.908Z,23.65
2019-03-22T03:13:25.951Z,23.32
2019-03-22T03:13:59.243Z,23.30
2019-03-22T03:14:32.255Z,25.77
2019-03-22T03:15:07.562Z,23.85
2019-03-22T03:15:40.577Z,22.15
2019-03-22T03:16:13.597Z,24.72
2019-03-22T03:16:46.608Z,24.05
2019-03-22T03:17:19.620Z,24.60
2019-03-22T03:17:52.623Z,23.00
2019-03-22T03:18:25.662Z,24.45
2019-03-22T03:18:59.500Z,24.23
2019-03-22T03:19:32.517Z,23.60
2019-03-22T03:20:07.162Z,23.00
2019-03-22T03:20:40.164Z,21.80
2019-03-22T03:21:13.321Z,24.12
2019-03-22T03:21:46.741Z,24.07
2019-03-22T03:22:19.742Z,24.12
2019-03-22T03:22:52.859Z,24.47
2019-03-22T03:23:25.851Z,25.10
2019-03-22T03:23:59.011Z,25.15
2019-03-22T03:24:32.438Z,24.60
2019-03-22T03:25:06.922Z,23.55
2019-03-22T03:25:40.943Z,24.02
2019-03-22T03:26:13.942Z,22.50
2019-03-22T03:26:47.411Z,22.62
2019-03-22T03:27:20.428Z,22.58
2019-03-22T03:27:53.802Z,24.12
2019-03-22T03:28:36.667Z,24.45
2019-03-22T03:29:01.621Z,23.27
2019-03-22T03:29:34.664Z,23.87
2019-03-22T03:30:10.060Z,22.70
2019-03-22T03:30:43.077Z,23.25
2019-03-22T03:31:16.137Z,23.95
2019-03-22T03:31:49.157Z,24.32
2019-03-22T03:32:22.172Z,24.47
2019-03-22T03:32:55.177Z,23.05
2019-03-22T03:33:28.217Z,24.02
2019-03-22T03:34:01.541Z,22.87
2019-03-22T03:34:34.554Z,24.70
2019-03-22T03:35:07.736Z,23.67
2019-03-22T03:35:40.748Z,24.60
2019-03-22T03:36:13.770Z,25.27
2019-03-22T03:36:46.792Z,24.55
2019-03-22T03:37:19.787Z,23.42
2019-03-22T03:37:53.075Z,23.10
2019-03-22T03:38:26.412Z,24.80
2019-03-22T03:38:59.422Z,23.92
2019-03-22T03:39:33.118Z,24.00
2019-03-22T03:40:07.767Z,24.10
2019-03-22T03:40:40.802Z,25.55
2019-03-22T03:41:14.219Z,24.47
2019-03-22T03:41:47.240Z,25.43
2019-03-22T03:42:20.261Z,24.05
2019-03-22T03:42:53.475Z,23.35
2019-03-22T03:43:26.620Z,23.77
2019-03-22T03:43:59.643Z,23.57
2019-03-22T03:44:32.947Z,24.55
2019-03-22T03:45:07.264Z,25.15
2019-03-22T03:45:40.264Z,23.00
2019-03-22T03:46:13.562Z,25.23
2019-03-22T03:46:46.592Z,23.47
2019-03-22T03:47:19.617Z,24.95
2019-03-22T03:47:52.617Z,24.95
2019-03-22T03:48:26.031Z,23.80
2019-03-22T03:48:59.059Z,24.40
2019-03-22T03:49:32.887Z,23.90
2019-03-22T03:50:06.960Z,23.15
2019-03-22T03:50:40.396Z,24.43
2019-03-22T03:51:13.410Z,23.20
2019-03-22T03:51:46.862Z,23.70
2019-03-22T03:52:19.886Z,24.23
2019-03-22T03:52:52.904Z,24.45
2019-03-22T03:53:26.609Z,22.85
2019-03-22T03:53:59.599Z,24.67
2019-03-22T03:54:32.620Z,24.75
2019-03-22T03:55:06.978Z,23.85
2019-03-22T03:55:40.297Z,24.72
2019-03-22T03:56:13.663Z,24.25
2019-03-22T03:56:46.706Z,23.98
2019-03-22T03:57:19.743Z,24.05
2019-03-22T03:57:52.811Z,23.65
2019-03-22T03:58:25.818Z,24.77
2019-03-22T03:58:58.942Z,24.82
2019-03-22T03:59:32.402Z,24.40
2019-03-22T04:00:06.677Z,23.60
2019-03-22T04:00:39.729Z,24.55
2019-03-22T04:01:12.745Z,25.32
2019-03-22T04:01:45.747Z,24.10
2019-03-22T04:02:19.543Z,23.32
2019-03-22T04:02:52.590Z,23.90
2019-03-22T04:03:25.609Z,23.45
2019-03-22T04:03:58.616Z,25.05
2019-03-22T04:04:31.627Z,25.10
2019-03-22T04:05:05.291Z,24.85
2019-03-22T04:05:38.337Z,23.32
2019-03-22T04:06:11.349Z,24.87
2019-03-22T04:06:44.370Z,22.27
2019-03-22T04:07:17.376Z,23.05
2019-03-22T04:07:50.771Z,24.47
2019-03-22T04:08:23.817Z,24.50
2019-03-22T04:08:57.209Z,24.27
2019-03-22T04:09:30.573Z,22.55
2019-03-22T04:10:04.759Z,23.32
2019-03-22T04:10:37.780Z,25.82
2019-03-22T04:11:10.789Z,25.25
2019-03-22T04:11:43.926Z,22.90
2019-03-22T04:12:16.953Z,23.75
2019-03-22T04:12:49.993Z,24.82
2019-03-22T04:13:22.995Z,24.98
2019-03-22T04:13:56.043Z,24.35
2019-03-22T04:14:29.134Z,24.72
2019-03-22T04:15:02.184Z,24.20
2019-03-22T04:15:35.201Z,24.37
2019-03-22T04:16:08.212Z,23.80
2019-03-22T04:16:41.570Z,23.32
2019-03-22T04:17:14.601Z,25.15
2019-03-22T04:17:48.068Z,24.52
2019-03-22T04:18:21.409Z,23.30
2019-03-22T04:18:54.435Z,23.70
2019-03-22T04:19:27.902Z,22.73
2019-03-22T04:20:01.835Z,24.00
2019-03-22T04:20:34.858Z,24.85
2019-03-22T04:21:07.873Z,24.43
2019-03-22T04:21:41.293Z,23.35
2019-03-22T04:22:14.306Z,23.22
2019-03-22T04:22:47.637Z,23.85
2019-03-22T04:23:20.687Z,23.30
2019-03-22T04:23:54.136Z,24.47
2019-03-22T04:24:27.515Z,23.95
2019-03-22T04:25:01.259Z,23.65
2019-03-22T04:25:34.269Z,22.70
2019-03-22T04:26:07.298Z,24.02
2019-03-22T04:26:40.305Z,23.73
2019-03-22T04:27:13.693Z,23.38
2019-03-22T04:27:46.690Z,23.98
2019-03-22T04:28:19.720Z,21.80
2019-03-22T04:29:06.813Z,23.57
2019-03-22T04:29:28.000Z,23.55
2019-03-22T04:30:01.016Z,22.60
2019-03-22T04:30:34.065Z,22.60
2019-03-22T04:31:07.355Z,24.57
2019-03-22T04:31:40.377Z,22.17
2019-03-22T04:32:13.391Z,21.80
2019-03-22T04:32:46.813Z,22.42
2019-03-22T04:33:19.822Z,22.98
2019-03-22T04:33:52.844Z,23.35
2019-03-22T04:34:26.139Z,23.65
2019-03-22T04:34:59.160Z,22.98
2019-03-22T04:35:32.196Z,23.07
2019-03-22T04:36:06.332Z,23.15
2019-03-22T04:36:39.358Z,23.15
2019-03-22T04:37:12.362Z,23.65
2019-03-22T04:37:45.401Z,24.02
2019-03-22T04:38:18.420Z,23.12
2019-03-22T04:38:51.443Z,21.93
2019-03-22T04:39:24.837Z,23.80
2019-03-22T04:39:57.970Z,21.95
2019-03-22T04:40:31.007Z,23.47
2019-03-22T04:41:04.006Z,23.52
2019-03-22T04:41:37.065Z,22.22
2019-03-22T04:42:10.085Z,23.05
2019-03-22T04:42:43.500Z,21.90
2019-03-22T04:43:16.524Z,22.37
2019-03-22T04:43:49.546Z,23.75
2019-03-22T04:44:22.646Z,22.50
2019-03-22T04:44:55.670Z,23.80
2019-03-22T04:45:30.432Z,22.25
2019-03-22T04:46:04.134Z,23.32
2019-03-22T04:46:39.038Z,23.67
2019-03-22T04:47:14.624Z,22.48
2019-03-22T04:47:50.741Z,21.97
2019-03-22T04:48:27.922Z,22.77
2019-03-22T04:49:02.914Z,21.85
2019-03-22T04:49:37.236Z,24.00
2019-03-22T04:50:10.565Z,22.35
2019-03-22T04:50:45.454Z,22.30
2019-03-22T04:51:18.491Z,22.75
2019-03-22T04:51:53.416Z,24.10
2019-03-22T04:52:27.298Z,22.93
2019-03-22T04:53:01.614Z,22.32
2019-03-22T04:53:43.393Z,21.75
2019-03-22T04:54:18.115Z,22.27
2019-03-22T04:54:54.748Z,22.93
2019-03-22T04:55:29.858Z,24.00
2019-03-22T04:56:07.558Z,22.13
2019-03-22T04:56:41.067Z,21.57
2019-03-22T04:57:15.580Z,23.50
2019-03-22T04:57:49.570Z,23.30
2019-03-22T04:58:23.603Z,23.20
2019-03-22T04:58:57.712Z,21.00
2019-03-22T04:59:31.828Z,21.68
2019-03-22T05:00:06.809Z,23.10
2019-03-22T05:00:41.218Z,22.15
2019-03-22T05:01:15.070Z,22.48
2019-03-22T05:01:51.006Z,22.20
2019-03-22T05:02:24.039Z,20.30
2019-03-22T05:02:58.265Z,22.17
2019-03-22T05:03:32.708Z,23.50
2019-03-22T05:04:06.927Z,22.48
2019-03-22T05:04:42.140Z,23.45
2019-03-22T05:05:15.485Z,23.18
2019-03-22T05:05:50.253Z,23.25
2019-03-22T05:06:23.606Z,21.42
2019-03-22T05:06:58.295Z,22.05
2019-03-22T05:07:32.110Z,23.60
2019-03-22T05:08:06.242Z,21.00
2019-03-22T05:08:40.964Z,21.60
2019-03-22T05:09:15.170Z,22.32
2019-03-22T05:09:50.048Z,22.40
2019-03-22T05:10:24.772Z,23.32
2019-03-22T05:11:00.108Z,24.00
2019-03-22T05:11:33.332Z,23.22
2019-03-22T05:12:08.960Z,23.95
2019-03-22T05:12:44.203Z,23.65
2019-03-22T05:13:19.461Z,21.05
2019-03-22T05:13:55.782Z,22.27
2019-03-22T05:14:30.824Z,22.67
2019-03-22T05:15:04.825Z,23.27
2019-03-22T05:15:38.241Z,21.82
2019-03-22T05:16:13.844Z,22.30
2019-03-22T05:16:49.336Z,23.57
2019-03-22T05:17:23.339Z,23.55
2019-03-22T05:17:57.096Z,23.40
2019-03-22T05:18:32.052Z,22.80
2019-03-22T05:19:08.428Z,23.38
2019-03-22T05:19:46.204Z,23.67
2019-03-22T05:20:20.816Z,22.93
2019-03-22T05:20:54.246Z,23.30
2019-03-22T05:21:27.776Z,22.48
2019-03-22T05:22:02.769Z,23.70
2019-03-22T05:22:37.291Z,22.50
2019-03-22T05:23:11.400Z,25.23
2019-03-22T05:23:46.991Z,23.73
2019-03-22T05:24:23.014Z,22.17
2019-03-22T05:24:58.841Z,23.40
2019-03-22T05:25:33.362Z,23.38
2019-03-22T05:26:07.349Z,25.25
2019-03-22T05:26:41.310Z,24.27
2019-03-22T05:27:15.904Z,22.95
2019-03-22T05:27:50.482Z,23.70
2019-03-22T05:28:25.620Z,22.87
2019-03-22T05:28:59.476Z,21.70
2019-03-22T05:29:35.586Z,24.80
2019-03-22T05:30:12.114Z,20.50
2019-03-22T05:31:15.863Z,23.32
2019-03-22T05:32:15.142Z,20.88
2019-03-22T05:32:48.172Z,22.02
2019-03-22T05:33:21.178Z,22.20
2019-03-22T05:33:54.192Z,22.77
2019-03-22T05:34:27.759Z,21.85
2019-03-22T05:35:00.790Z,22.73
2019-03-22T05:35:34.112Z,24.50
2019-03-22T05:36:07.137Z,23.45
2019-03-22T05:36:40.464Z,22.70
2019-03-22T05:37:13.475Z,23.77
2019-03-22T05:37:46.499Z,23.25
2019-03-22T05:38:19.892Z,23.65
2019-03-22T05:38:52.902Z,23.77
2019-03-22T05:39:26.975Z,24.65
2019-03-22T05:40:00.019Z,23.50
2019-03-22T05:40:33.322Z,23.60
2019-03-22T05:41:06.699Z,23.45
2019-03-22T05:41:39.708Z,25.12
2019-03-22T05:42:12.841Z,25.25
2019-03-22T05:42:45.870Z,24.07
2019-03-22T05:43:18.888Z,26.15
2019-03-22T05:43:52.306Z,24.43
2019-03-22T05:44:25.311Z,21.97
2019-03-22T05:44:58.329Z,23.47
2019-03-22T05:45:31.367Z,24.43
2019-03-22T05:46:04.392Z,24.25
2019-03-22T05:46:37.416Z,25.30
2019-03-22T05:47:10.428Z,25.52
2019-03-22T05:47:43.454Z,23.67
2019-03-22T05:48:16.785Z,23.77
2019-03-22T05:48:49.812Z,24.98
2019-03-22T05:49:22.828Z,23.83
2019-03-22T05:49:56.225Z,24.27
2019-03-22T05:50:29.600Z,24.12
2019-03-22T05:51:02.652Z,23.38
2019-03-22T05:51:35.693Z,25.48
2019-03-22T05:52:08.838Z,24.72
2019-03-22T05:52:42.011Z,24.45
2019-03-22T05:53:15.040Z,24.72
2019-03-22T05:53:48.371Z,25.48
2019-03-22T05:54:21.370Z,24.07
2019-03-22T05:54:54.886Z,23.25
2019-03-22T05:55:28.607Z,24.07
2019-03-22T05:56:02.153Z,25.12
2019-03-22T05:56:35.240Z,23.73
2019-03-22T05:57:13.271Z,23.45
2019-03-22T05:57:45.510Z,24.43
2019-03-22T05:58:18.936Z,24.27
2019-03-22T05:58:52.417Z,24.30
2019-03-22T05:59:25.459Z,24.20
2019-03-22T05:59:58.849Z,25.40
2019-03-22T06:00:31.874Z,25.60
2019-03-22T06:01:05.768Z,24.18
2019-03-22T06:01:39.612Z,25.45
2019-03-22T06:02:13.010Z,25.10
2019-03-22T06:02:46.782Z,24.60
2019-03-22T06:03:20.174Z,24.98
2019-03-22T06:03:53.192Z,26.15
2019-03-22T06:04:26.206Z,25.35
2019-03-22T06:04:59.604Z,24.70
2019-03-22T06:05:32.628Z,26.77
2019-03-22T06:06:06.067Z,23.42
2019-03-22T06:06:39.096Z,25.95
2019-03-22T06:07:12.566Z,26.52
2019-03-22T06:07:45.895Z,25.17
2019-03-22T06:08:18.906Z,24.23
2019-03-22T06:08:51.917Z,24.55
2019-03-22T06:09:25.226Z,24.72
2019-03-22T06:09:58.647Z,25.17
2019-03-22T06:10:32.047Z,25.40
2019-03-22T06:11:05.068Z,25.20
2019-03-22T06:11:38.074Z,23.80
2019-03-22T06:12:11.545Z,26.55
2019-03-22T06:12:44.906Z,24.55
2019-03-22T06:13:18.283Z,25.80
2019-03-22T06:13:51.676Z,26.50
2019-03-22T06:14:24.699Z,26.20
2019-03-22T06:14:58.041Z,25.43
2019-03-22T06:15:31.051Z,25.65
2019-03-22T06:16:04.421Z,25.62
2019-03-22T06:16:38.170Z,24.40
2019-03-22T06:17:11.200Z,26.07
2019-03-22T06:17:51.638Z,25.92
2019-03-22T06:18:19.825Z,24.80
2019-03-22T06:18:52.835Z,26.45
2019-03-22T06:19:25.858Z,25.52
2019-03-22T06:19:59.185Z,27.05
2019-03-22T06:20:32.191Z,25.40
2019-03-22T06:21:05.951Z,23.62
2019-03-22T06:21:39.847Z,25.23
2019-03-22T06:22:12.883Z,24.95
2019-03-22T06:22:45.890Z,25.88
2019-03-22T06:23:19.275Z,25.30
2019-03-22T06:23:52.668Z,26.40
2019-03-22T06:24:25.701Z,24.05
2019-03-22T06:24:59.462Z,24.75
2019-03-22T06:25:32.438Z,26.42
2019-03-22T06:26:05.551Z,26.25
2019-03-22T06:26:38.563Z,26.68
2019-03-22T06:27:11.588Z,25.25
2019-03-22T06:27:44.614Z,25.97
2019-03-22T06:28:17.998Z,24.57
2019-03-22T06:28:51.029Z,26.40
2019-03-22T06:29:24.415Z,26.25
2019-03-22T06:29:57.432Z,25.57
2019-03-22T06:30:30.434Z,24.77
2019-03-22T06:31:03.449Z,25.55
2019-03-22T06:31:36.464Z,24.67
2019-03-22T06:32:09.485Z,24.65
2019-03-22T06:32:42.783Z,26.50
2019-03-22T06:33:16.193Z,26.00
2019-03-22T06:33:49.231Z,26.52
2019-03-22T06:34:22.390Z,25.97
2019-03-22T06:34:55.420Z,25.05
2019-03-22T06:35:28.817Z,24.15
2019-03-22T06:36:01.818Z,24.50
2019-03-22T06:36:35.006Z,25.90
2019-03-22T06:37:07.998Z,25.57
2019-03-22T06:37:41.006Z,25.40
2019-03-22T06:38:14.026Z,25.15
2019-03-22T06:38:47.062Z,25.00
2019-03-22T06:39:20.416Z,27.27
2019-03-22T06:39:53.839Z,26.77
2019-03-22T06:40:27.371Z,26.00
2019-03-22T06:41:00.700Z,25.88
2019-03-22T06:41:34.206Z,27.37
2019-03-22T06:42:07.220Z,26.23
2019-03-22T06:42:40.558Z,24.85
2019-03-22T06:43:13.576Z,25.40
2019-03-22T06:43:46.612Z,25.90
2019-03-22T06:44:20.090Z,24.63
2019-03-22T06:44:53.094Z,26.97
2019-03-22T06:45:26.533Z,25.52
2019-03-22T06:45:59.571Z,25.27
2019-03-22T06:46:32.588Z,24.37
2019-03-22T06:47:05.927Z,24.10
2019-03-22T06:47:38.941Z,25.57
2019-03-22T06:48:12.286Z,25.05
2019-03-22T06:48:45.294Z,25.35
2019-03-22T06:49:18.333Z,25.08
2019-03-22T06:49:51.352Z,26.10
2019-03-22T06:50:24.694Z,23.30
2019-03-22T06:50:57.702Z,25.08
2019-03-22T06:51:30.749Z,25.60
2019-03-22T06:52:03.939Z,25.35
2019-03-22T06:52:36.988Z,25.50
2019-03-22T06:53:09.982Z,24.75
2019-03-22T06:53:43.001Z,24.98
2019-03-22T06:54:16.021Z,24.43
2019-03-22T06:54:49.168Z,26.12
2019-03-22T06:55:22.478Z,25.02
2019-03-22T06:55:55.500Z,24.98
2019-03-22T06:56:28.520Z,24.95
2019-03-22T06:57:01.567Z,24.98
2019-03-22T06:57:34.982Z,25.30
2019-03-22T06:58:07.984Z,25.35
2019-03-22T06:58:41.156Z,25.05
2019-03-22T06:59:14.545Z,25.30
2019-03-22T06:59:47.555Z,25.85
2019-03-22T07:00:20.567Z,25.45
2019-03-22T07:00:53.945Z,27.13
2019-03-22T07:01:27.259Z,26.42
2019-03-22T07:02:00.275Z,25.82
2019-03-22T07:02:33.315Z,26.05
2019-03-22T07:03:06.680Z,26.65
2019-03-22T07:03:40.026Z,26.02
2019-03-22T07:04:13.060Z,27.42
2019-03-22T07:04:46.088Z,26.27
2019-03-22T07:05:19.768Z,27.13
2019-03-22T07:05:52.800Z,26.50
2019-03-22T07:06:26.128Z,25.92
2019-03-22T07:06:59.807Z,26.12
2019-03-22T07:07:32.811Z,25.85
2019-03-22T07:08:06.163Z,26.00
2019-03-22T07:08:39.193Z,24.60
2019-03-22T07:09:12.210Z,26.27
2019-03-22T07:09:45.561Z,25.97
2019-03-22T07:10:18.590Z,24.07
2019-03-22T07:10:51.604Z,24.80
2019-03-22T07:11:24.610Z,23.60